sensor_id;sensor_type;location;lat;lon;timestamp;temperature;humidity
39847;DHT22;25517;52.422;10.782;2024-01-15T00:01:56;1.60;99.90
39847;DHT22;25517;52.422;10.782;2024-01-15T00:04:22;1.60;99.90
39847;DHT22;25517;52.422;10.782;2024-01-15T00:06:48;1.60;99.90
39847;DHT22;25517;52.422;10.782;2024-01-15T00:09:14;1.60;99.90
39847;DHT22;25517;52.422;10.782;2024-01-15T00:11:40;1.60;99.90
39847;DHT22;25517;52.422;10.782;2024-01-15T00:14:06;1.60;99.90
39847;DHT22;25517;52.422;10.782;2024-01-15T00:16:31;1.60;99.90
39847;DHT22;25517;52.422;10.782;2024-01-15T00:18:57;1.60;99.90
39847;DHT22;25517;52.422;10.782;2024-01-15T00:21:22;1.60;99.90
39847;DHT22;25517;52.422;10.782;2024-01-15T00:23:48;1.60;99.90
39847;DHT22;25517;52.422;10.782;2024-01-15T00:26:14;1.60;99.90
39847;DHT22;25517;52.422;10.782;2024-01-15T00:28:40;1.70;99.90
39847;DHT22;25517;52.422;10.782;2024-01-15T00:31:06;1.70;99.90
39847;DHT22;25517;52.422;10.782;2024-01-15T00:33:31;1.70;99.90
39847;DHT22;25517;52.422;10.782;2024-01-15T00:35:57;1.70;99.90
39847;DHT22;25517;52.422;10.782;2024-01-15T00:38:23;1.70;99.90
39847;DHT22;25517;52.422;10.782;2024-01-15T00:40:48;1.70;99.90
39847;DHT22;25517;52.422;10.782;2024-01-15T00:43:14;1.70;99.90
39847;DHT22;25517;52.422;10.782;2024-01-15T00:45:40;1.70;99.90
39847;DHT22;25517;52.422;10.782;2024-01-15T00:48:06;1.80;99.90
39847;DHT22;25517;52.422;10.782;2024-01-15T00:50:31;1.80;99.90
39847;DHT22;25517;52.422;10.782;2024-01-15T00:52:57;1.80;99.90
39847;DHT22;25517;52.422;10.782;2024-01-15T00:55:23;1.90;99.90
39847;DHT22;25517;52.422;10.782;2024-01-15T00:57:48;1.90;99.90
39847;DHT22;25517;52.422;10.782;2024-01-15T01:00:14;1.80;99.90
39847;DHT22;25517;52.422;10.782;2024-01-15T01:02:40;1.80;99.90
39847;DHT22;25517;52.422;10.782;2024-01-15T01:05:06;1.80;99.90
39847;DHT22;25517;52.422;10.782;2024-01-15T01:07:31;1.80;99.90
39847;DHT22;25517;52.422;10.782;2024-01-15T01:09:57;1.80;99.90
39847;DHT22;25517;52.422;10.782;2024-01-15T01:12:23;1.70;99.90
39847;DHT22;25517;52.422;10.782;2024-01-15T01:14:48;1.70;99.90
39847;DHT22;25517;52.422;10.782;2024-01-15T01:17:14;1.70;99.90
39847;DHT22;25517;52.422;10.782;2024-01-15T01:19:39;1.70;99.90
39847;DHT22;25517;52.422;10.782;2024-01-15T01:22:05;1.80;99.90
39847;DHT22;25517;52.422;10.782;2024-01-15T01:24:31;1.70;99.90
39847;DHT22;25517;52.422;10.782;2024-01-15T01:26:56;1.80;99.90
39847;DHT22;25517;52.422;10.782;2024-01-15T01:29:22;1.80;99.90
39847;DHT22;25517;52.422;10.782;2024-01-15T01:31:48;1.80;99.90
39847;DHT22;25517;52.422;10.782;2024-01-15T01:34:15;1.70;99.90
39847;DHT22;25517;52.422;10.782;2024-01-15T01:36:41;1.70;99.90
39847;DHT22;25517;52.422;10.782;2024-01-15T01:39:06;1.70;99.90
39847;DHT22;25517;52.422;10.782;2024-01-15T01:41:32;1.70;99.90
39847;DHT22;25517;52.422;10.782;2024-01-15T01:43:57;1.70;99.90
39847;DHT22;25517;52.422;10.782;2024-01-15T01:46:24;1.70;99.90
39847;DHT22;25517;52.422;10.782;2024-01-15T01:48:51;1.70;99.90
39847;DHT22;25517;52.422;10.782;2024-01-15T01:51:17;1.70;99.90
39847;DHT22;25517;52.422;10.782;2024-01-15T01:53:44;1.80;99.90
39847;DHT22;25517;52.422;10.782;2024-01-15T01:56:11;1.80;99.90
39847;DHT22;25517;52.422;10.782;2024-01-15T01:58:38;1.80;99.90
39847;DHT22;25517;52.422;10.782;2024-01-15T02:01:03;1.80;99.90
39847;DHT22;25517;52.422;10.782;2024-01-15T02:03:30;1.80;99.90
39847;DHT22;25517;52.422;10.782;2024-01-15T02:05:56;1.80;99.90
39847;DHT22;25517;52.422;10.782;2024-01-15T02:08:22;1.80;99.90
39847;DHT22;25517;52.422;10.782;2024-01-15T02:10:48;1.90;99.90
39847;DHT22;25517;52.422;10.782;2024-01-15T02:13:13;1.90;99.90
39847;DHT22;25517;52.422;10.782;2024-01-15T02:15:40;1.90;99.90
39847;DHT22;25517;52.422;10.782;2024-01-15T02:18:06;1.90;99.90
39847;DHT22;25517;52.422;10.782;2024-01-15T02:20:35;1.90;99.90
39847;DHT22;25517;52.422;10.782;2024-01-15T02:25:32;1.90;99.90
39847;DHT22;25517;52.422;10.782;2024-01-15T02:27:58;1.90;99.90
39847;DHT22;25517;52.422;10.782;2024-01-15T02:30:25;1.80;99.90
39847;DHT22;25517;52.422;10.782;2024-01-15T02:32:51;1.90;99.90
39847;DHT22;25517;52.422;10.782;2024-01-15T02:35:16;1.90;99.90
39847;DHT22;25517;52.422;10.782;2024-01-15T02:37:43;1.90;99.90
39847;DHT22;25517;52.422;10.782;2024-01-15T02:40:08;1.90;99.90
39847;DHT22;25517;52.422;10.782;2024-01-15T02:42:34;1.90;99.90
39847;DHT22;25517;52.422;10.782;2024-01-15T02:45:00;1.90;99.90
39847;DHT22;25517;52.422;10.782;2024-01-15T02:47:25;1.90;99.90
39847;DHT22;25517;52.422;10.782;2024-01-15T02:49:51;1.90;99.90
39847;DHT22;25517;52.422;10.782;2024-01-15T02:52:16;2.00;99.90
39847;DHT22;25517;52.422;10.782;2024-01-15T02:54:42;2.00;99.90
39847;DHT22;25517;52.422;10.782;2024-01-15T02:57:08;2.00;99.90
39847;DHT22;25517;52.422;10.782;2024-01-15T02:59:33;2.10;99.90
39847;DHT22;25517;52.422;10.782;2024-01-15T03:01:59;2.00;99.90
39847;DHT22;25517;52.422;10.782;2024-01-15T03:04:24;2.00;99.90
39847;DHT22;25517;52.422;10.782;2024-01-15T03:06:50;2.10;99.90
39847;DHT22;25517;52.422;10.782;2024-01-15T03:09:16;2.10;99.90
39847;DHT22;25517;52.422;10.782;2024-01-15T03:11:41;2.10;99.90
39847;DHT22;25517;52.422;10.782;2024-01-15T03:14:07;2.10;99.90
39847;DHT22;25517;52.422;10.782;2024-01-15T03:16:32;2.10;99.90
39847;DHT22;25517;52.422;10.782;2024-01-15T03:18:58;2.20;99.90
39847;DHT22;25517;52.422;10.782;2024-01-15T03:21:24;2.20;99.90
39847;DHT22;25517;52.422;10.782;2024-01-15T03:23:49;2.20;99.90
39847;DHT22;25517;52.422;10.782;2024-01-15T03:26:15;2.20;99.90
39847;DHT22;25517;52.422;10.782;2024-01-15T03:28:40;2.10;99.90
39847;DHT22;25517;52.422;10.782;2024-01-15T03:31:07;2.10;99.90
39847;DHT22;25517;52.422;10.782;2024-01-15T03:33:33;2.10;99.90
39847;DHT22;25517;52.422;10.782;2024-01-15T03:35:59;2.10;99.90
39847;DHT22;25517;52.422;10.782;2024-01-15T03:38:24;2.10;99.90
39847;DHT22;25517;52.422;10.782;2024-01-15T03:40:50;2.10;99.90
39847;DHT22;25517;52.422;10.782;2024-01-15T03:43:15;2.10;99.90
39847;DHT22;25517;52.422;10.782;2024-01-15T03:45:41;2.10;99.90
39847;DHT22;25517;52.422;10.782;2024-01-15T03:48:07;2.10;99.90
39847;DHT22;25517;52.422;10.782;2024-01-15T03:50:32;2.20;99.90
39847;DHT22;25517;52.422;10.782;2024-01-15T03:52:58;2.20;99.90
39847;DHT22;25517;52.422;10.782;2024-01-15T03:55:23;2.20;99.90
39847;DHT22;25517;52.422;10.782;2024-01-15T03:57:49;2.20;99.90
39847;DHT22;25517;52.422;10.782;2024-01-15T04:00:15;2.20;99.90
39847;DHT22;25517;52.422;10.782;2024-01-15T04:02:43;2.20;99.90
39847;DHT22;25517;52.422;10.782;2024-01-15T04:05:09;2.20;99.90
39847;DHT22;25517;52.422;10.782;2024-01-15T04:07:35;2.20;99.90
39847;DHT22;25517;52.422;10.782;2024-01-15T04:10:00;2.20;99.90
39847;DHT22;25517;52.422;10.782;2024-01-15T04:12:26;2.20;99.90
39847;DHT22;25517;52.422;10.782;2024-01-15T04:14:52;2.20;99.90
39847;DHT22;25517;52.422;10.782;2024-01-15T04:17:17;2.20;99.90
39847;DHT22;25517;52.422;10.782;2024-01-15T04:19:46;2.20;99.90
39847;DHT22;25517;52.422;10.782;2024-01-15T04:22:13;2.20;99.90
39847;DHT22;25517;52.422;10.782;2024-01-15T04:24:39;2.20;99.90
39847;DHT22;25517;52.422;10.782;2024-01-15T04:27:05;2.30;99.90
39847;DHT22;25517;52.422;10.782;2024-01-15T04:29:30;2.30;99.90
39847;DHT22;25517;52.422;10.782;2024-01-15T04:31:56;2.20;99.90
39847;DHT22;25517;52.422;10.782;2024-01-15T04:34:22;2.20;99.90
39847;DHT22;25517;52.422;10.782;2024-01-15T04:36:47;2.20;99.90
39847;DHT22;25517;52.422;10.782;2024-01-15T04:39:13;2.20;99.90
39847;DHT22;25517;52.422;10.782;2024-01-15T04:41:38;2.20;99.90
39847;DHT22;25517;52.422;10.782;2024-01-15T04:44:04;2.20;99.90
39847;DHT22;25517;52.422;10.782;2024-01-15T04:46:29;2.20;99.90
39847;DHT22;25517;52.422;10.782;2024-01-15T04:48:55;2.10;99.90
39847;DHT22;25517;52.422;10.782;2024-01-15T04:51:21;2.10;99.90
39847;DHT22;25517;52.422;10.782;2024-01-15T04:53:46;2.00;99.90
39847;DHT22;25517;52.422;10.782;2024-01-15T04:56:12;1.90;99.90
39847;DHT22;25517;52.422;10.782;2024-01-15T04:58:37;1.90;99.90
39847;DHT22;25517;52.422;10.782;2024-01-15T05:01:03;1.90;99.90
39847;DHT22;25517;52.422;10.782;2024-01-15T05:03:29;1.90;99.90
39847;DHT22;25517;52.422;10.782;2024-01-15T05:05:55;1.90;99.90
39847;DHT22;25517;52.422;10.782;2024-01-15T05:08:20;1.90;99.90
39847;DHT22;25517;52.422;10.782;2024-01-15T05:10:47;1.90;99.90
39847;DHT22;25517;52.422;10.782;2024-01-15T05:13:12;1.90;99.90
39847;DHT22;25517;52.422;10.782;2024-01-15T05:15:38;1.90;99.90
39847;DHT22;25517;52.422;10.782;2024-01-15T05:18:04;2.00;99.90
39847;DHT22;25517;52.422;10.782;2024-01-15T05:20:29;2.00;99.90
39847;DHT22;25517;52.422;10.782;2024-01-15T05:22:55;2.00;99.90
39847;DHT22;25517;52.422;10.782;2024-01-15T05:25:21;1.90;99.90
39847;DHT22;25517;52.422;10.782;2024-01-15T05:27:46;1.90;99.90
39847;DHT22;25517;52.422;10.782;2024-01-15T05:30:12;2.00;99.90
39847;DHT22;25517;52.422;10.782;2024-01-15T05:32:38;2.00;99.90
39847;DHT22;25517;52.422;10.782;2024-01-15T05:35:04;2.00;99.90
39847;DHT22;25517;52.422;10.782;2024-01-15T05:37:29;2.10;99.90
39847;DHT22;25517;52.422;10.782;2024-01-15T05:39:55;2.10;99.90
39847;DHT22;25517;52.422;10.782;2024-01-15T05:42:20;2.20;99.90
39847;DHT22;25517;52.422;10.782;2024-01-15T05:44:46;2.20;99.90
39847;DHT22;25517;52.422;10.782;2024-01-15T05:47:11;2.20;99.90
39847;DHT22;25517;52.422;10.782;2024-01-15T05:49:37;2.20;99.90
39847;DHT22;25517;52.422;10.782;2024-01-15T05:52:03;2.10;99.90
39847;DHT22;25517;52.422;10.782;2024-01-15T05:54:29;2.00;99.90
39847;DHT22;25517;52.422;10.782;2024-01-15T05:56:54;1.90;99.90
39847;DHT22;25517;52.422;10.782;2024-01-15T05:59:20;1.90;99.90
39847;DHT22;25517;52.422;10.782;2024-01-15T06:01:46;1.80;99.90
39847;DHT22;25517;52.422;10.782;2024-01-15T06:04:11;1.70;99.90
39847;DHT22;25517;52.422;10.782;2024-01-15T06:06:37;1.70;99.90
39847;DHT22;25517;52.422;10.782;2024-01-15T06:09:03;1.80;99.90
39847;DHT22;25517;52.422;10.782;2024-01-15T06:11:31;1.70;99.90
39847;DHT22;25517;52.422;10.782;2024-01-15T06:13:57;1.70;99.90
39847;DHT22;25517;52.422;10.782;2024-01-15T06:16:24;1.70;99.90
39847;DHT22;25517;52.422;10.782;2024-01-15T06:18:49;1.80;99.90
39847;DHT22;25517;52.422;10.782;2024-01-15T06:21:16;1.80;99.90
39847;DHT22;25517;52.422;10.782;2024-01-15T06:23:42;1.80;99.90
39847;DHT22;25517;52.422;10.782;2024-01-15T06:26:07;1.80;99.90
39847;DHT22;25517;52.422;10.782;2024-01-15T06:28:33;1.80;99.90
39847;DHT22;25517;52.422;10.782;2024-01-15T06:30:59;1.90;99.90
39847;DHT22;25517;52.422;10.782;2024-01-15T06:33:24;1.80;99.90
39847;DHT22;25517;52.422;10.782;2024-01-15T06:35:50;1.80;99.90
39847;DHT22;25517;52.422;10.782;2024-01-15T06:38:16;1.80;99.90
39847;DHT22;25517;52.422;10.782;2024-01-15T06:40:42;1.80;99.90
39847;DHT22;25517;52.422;10.782;2024-01-15T06:43:13;1.80;99.90
39847;DHT22;25517;52.422;10.782;2024-01-15T06:45:38;1.90;99.90
39847;DHT22;25517;52.422;10.782;2024-01-15T06:48:04;1.90;99.90
39847;DHT22;25517;52.422;10.782;2024-01-15T06:50:30;1.90;99.90
39847;DHT22;25517;52.422;10.782;2024-01-15T06:52:56;1.90;99.90
39847;DHT22;25517;52.422;10.782;2024-01-15T06:55:21;1.90;99.90
39847;DHT22;25517;52.422;10.782;2024-01-15T06:57:47;1.90;99.90
39847;DHT22;25517;52.422;10.782;2024-01-15T07:00:13;1.90;99.90
39847;DHT22;25517;52.422;10.782;2024-01-15T07:02:38;1.90;99.90
39847;DHT22;25517;52.422;10.782;2024-01-15T07:05:04;1.80;99.90
39847;DHT22;25517;52.422;10.782;2024-01-15T07:07:31;1.80;99.90
39847;DHT22;25517;52.422;10.782;2024-01-15T07:09:56;1.80;99.90
39847;DHT22;25517;52.422;10.782;2024-01-15T07:12:22;1.80;99.90
39847;DHT22;25517;52.422;10.782;2024-01-15T07:14:48;1.70;99.90
39847;DHT22;25517;52.422;10.782;2024-01-15T07:17:14;1.70;99.90
39847;DHT22;25517;52.422;10.782;2024-01-15T07:19:39;1.70;99.90
39847;DHT22;25517;52.422;10.782;2024-01-15T07:22:05;1.70;99.90
39847;DHT22;25517;52.422;10.782;2024-01-15T07:24:31;1.70;99.90
39847;DHT22;25517;52.422;10.782;2024-01-15T07:26:56;1.70;99.90
39847;DHT22;25517;52.422;10.782;2024-01-15T07:29:22;1.70;99.90
39847;DHT22;25517;52.422;10.782;2024-01-15T07:31:51;1.70;99.90
39847;DHT22;25517;52.422;10.782;2024-01-15T07:34:17;1.70;99.90
39847;DHT22;25517;52.422;10.782;2024-01-15T07:36:46;1.80;99.90
39847;DHT22;25517;52.422;10.782;2024-01-15T07:39:12;1.80;99.90
39847;DHT22;25517;52.422;10.782;2024-01-15T07:41:38;1.80;99.90
39847;DHT22;25517;52.422;10.782;2024-01-15T07:44:03;1.80;99.90
39847;DHT22;25517;52.422;10.782;2024-01-15T07:46:29;1.90;99.90
39847;DHT22;25517;52.422;10.782;2024-01-15T07:48:55;1.90;99.90
39847;DHT22;25517;52.422;10.782;2024-01-15T07:51:26;1.90;99.90
39847;DHT22;25517;52.422;10.782;2024-01-15T07:53:53;1.90;99.90
39847;DHT22;25517;52.422;10.782;2024-01-15T07:56:20;2.00;99.90
39847;DHT22;25517;52.422;10.782;2024-01-15T07:58:46;2.00;99.90
39847;DHT22;25517;52.422;10.782;2024-01-15T08:01:12;2.00;99.90
39847;DHT22;25517;52.422;10.782;2024-01-15T08:03:38;2.10;99.90
39847;DHT22;25517;52.422;10.782;2024-01-15T08:06:05;2.00;99.90
39847;DHT22;25517;52.422;10.782;2024-01-15T08:08:31;2.00;99.90
39847;DHT22;25517;52.422;10.782;2024-01-15T08:10:56;2.00;99.90
39847;DHT22;25517;52.422;10.782;2024-01-15T08:13:22;2.00;99.90
39847;DHT22;25517;52.422;10.782;2024-01-15T08:15:48;2.00;99.90
39847;DHT22;25517;52.422;10.782;2024-01-15T08:18:20;2.00;99.90
39847;DHT22;25517;52.422;10.782;2024-01-15T08:20:47;2.00;99.90
39847;DHT22;25517;52.422;10.782;2024-01-15T08:23:12;2.00;99.90
39847;DHT22;25517;52.422;10.782;2024-01-15T08:25:38;2.00;99.90
39847;DHT22;25517;52.422;10.782;2024-01-15T08:28:04;2.00;99.90
39847;DHT22;25517;52.422;10.782;2024-01-15T08:30:29;2.00;99.90
39847;DHT22;25517;52.422;10.782;2024-01-15T08:32:55;2.10;99.90
39847;DHT22;25517;52.422;10.782;2024-01-15T08:35:21;2.10;99.90
39847;DHT22;25517;52.422;10.782;2024-01-15T08:37:51;2.10;99.90
39847;DHT22;25517;52.422;10.782;2024-01-15T08:40:17;2.10;99.90
39847;DHT22;25517;52.422;10.782;2024-01-15T08:42:43;2.10;99.90
39847;DHT22;25517;52.422;10.782;2024-01-15T08:45:09;2.10;99.90
39847;DHT22;25517;52.422;10.782;2024-01-15T08:47:35;2.10;99.90
39847;DHT22;25517;52.422;10.782;2024-01-15T08:50:01;2.10;99.90
39847;DHT22;25517;52.422;10.782;2024-01-15T08:52:28;2.20;99.90
39847;DHT22;25517;52.422;10.782;2024-01-15T08:54:55;2.20;99.90
39847;DHT22;25517;52.422;10.782;2024-01-15T08:57:21;2.30;99.90
39847;DHT22;25517;52.422;10.782;2024-01-15T08:59:47;2.30;99.90
39847;DHT22;25517;52.422;10.782;2024-01-15T09:02:13;2.30;99.90
39847;DHT22;25517;52.422;10.782;2024-01-15T09:04:39;2.30;99.90
39847;DHT22;25517;52.422;10.782;2024-01-15T09:07:04;2.30;99.90
39847;DHT22;25517;52.422;10.782;2024-01-15T09:09:30;2.20;99.90
39847;DHT22;25517;52.422;10.782;2024-01-15T09:11:56;2.20;99.90
39847;DHT22;25517;52.422;10.782;2024-01-15T09:14:21;2.10;99.90
39847;DHT22;25517;52.422;10.782;2024-01-15T09:16:49;2.10;99.90
39847;DHT22;25517;52.422;10.782;2024-01-15T09:19:15;2.10;99.90
39847;DHT22;25517;52.422;10.782;2024-01-15T09:21:40;2.10;99.90
39847;DHT22;25517;52.422;10.782;2024-01-15T09:24:06;2.10;99.90
39847;DHT22;25517;52.422;10.782;2024-01-15T09:26:32;2.00;99.90
39847;DHT22;25517;52.422;10.782;2024-01-15T09:28:58;1.80;99.90
39847;DHT22;25517;52.422;10.782;2024-01-15T09:31:23;1.90;99.90
39847;DHT22;25517;52.422;10.782;2024-01-15T09:33:49;1.80;99.90
39847;DHT22;25517;52.422;10.782;2024-01-15T09:36:17;1.90;99.90
39847;DHT22;25517;52.422;10.782;2024-01-15T09:38:43;1.80;99.90
39847;DHT22;25517;52.422;10.782;2024-01-15T09:41:09;1.80;99.90
39847;DHT22;25517;52.422;10.782;2024-01-15T09:43:36;1.80;99.90
39847;DHT22;25517;52.422;10.782;2024-01-15T09:46:03;1.80;99.90
39847;DHT22;25517;52.422;10.782;2024-01-15T09:48:29;1.80;99.90
39847;DHT22;25517;52.422;10.782;2024-01-15T09:50:57;1.90;99.90
39847;DHT22;25517;52.422;10.782;2024-01-15T09:53:25;1.80;99.90
39847;DHT22;25517;52.422;10.782;2024-01-15T09:55:52;1.80;99.90
39847;DHT22;25517;52.422;10.782;2024-01-15T09:58:18;1.80;99.90
39847;DHT22;25517;52.422;10.782;2024-01-15T10:00:45;1.90;99.90
39847;DHT22;25517;52.422;10.782;2024-01-15T10:03:13;1.90;99.90
39847;DHT22;25517;52.422;10.782;2024-01-15T10:05:39;2.00;99.90
39847;DHT22;25517;52.422;10.782;2024-01-15T10:08:05;2.00;99.90
39847;DHT22;25517;52.422;10.782;2024-01-15T10:10:31;2.00;99.90
39847;DHT22;25517;52.422;10.782;2024-01-15T10:12:58;2.00;99.90
39847;DHT22;25517;52.422;10.782;2024-01-15T10:15:25;1.90;99.90
39847;DHT22;25517;52.422;10.782;2024-01-15T10:17:52;1.90;99.90
39847;DHT22;25517;52.422;10.782;2024-01-15T10:20:17;1.90;99.90
39847;DHT22;25517;52.422;10.782;2024-01-15T10:22:44;2.00;99.90
39847;DHT22;25517;52.422;10.782;2024-01-15T10:25:12;2.00;99.90
39847;DHT22;25517;52.422;10.782;2024-01-15T10:27:38;2.10;99.90
39847;DHT22;25517;52.422;10.782;2024-01-15T10:30:05;2.20;99.90
39847;DHT22;25517;52.422;10.782;2024-01-15T10:32:31;2.30;99.90
39847;DHT22;25517;52.422;10.782;2024-01-15T10:34:57;2.40;99.90
39847;DHT22;25517;52.422;10.782;2024-01-15T10:37:24;2.40;99.90
39847;DHT22;25517;52.422;10.782;2024-01-15T10:39:49;2.50;99.90
39847;DHT22;25517;52.422;10.782;2024-01-15T10:42:15;2.60;99.90
39847;DHT22;25517;52.422;10.782;2024-01-15T10:44:44;2.60;99.90
39847;DHT22;25517;52.422;10.782;2024-01-15T10:47:12;2.60;99.90
39847;DHT22;25517;52.422;10.782;2024-01-15T10:49:38;2.60;99.90
39847;DHT22;25517;52.422;10.782;2024-01-15T10:52:05;2.60;99.90
39847;DHT22;25517;52.422;10.782;2024-01-15T10:54:32;2.60;99.90
39847;DHT22;25517;52.422;10.782;2024-01-15T10:56:58;2.50;99.90
39847;DHT22;25517;52.422;10.782;2024-01-15T10:59:23;2.50;99.90
39847;DHT22;25517;52.422;10.782;2024-01-15T11:01:50;2.50;99.90
39847;DHT22;25517;52.422;10.782;2024-01-15T11:04:19;2.50;99.90
39847;DHT22;25517;52.422;10.782;2024-01-15T11:06:47;2.40;99.90
39847;DHT22;25517;52.422;10.782;2024-01-15T11:09:13;2.50;99.90
39847;DHT22;25517;52.422;10.782;2024-01-15T11:11:41;2.50;99.90
39847;DHT22;25517;52.422;10.782;2024-01-15T11:14:08;2.50;99.90
39847;DHT22;25517;52.422;10.782;2024-01-15T11:16:54;2.50;99.90
39847;DHT22;25517;52.422;10.782;2024-01-15T11:19:21;2.50;99.90
39847;DHT22;25517;52.422;10.782;2024-01-15T11:21:47;2.50;99.90
39847;DHT22;25517;52.422;10.782;2024-01-15T11:24:33;2.60;99.90
39847;DHT22;25517;52.422;10.782;2024-01-15T11:26:59;2.60;99.90
39847;DHT22;25517;52.422;10.782;2024-01-15T11:29:29;2.60;99.90
39847;DHT22;25517;52.422;10.782;2024-01-15T11:34:20;2.70;99.90
39847;DHT22;25517;52.422;10.782;2024-01-15T11:39:39;2.70;99.90
39847;DHT22;25517;52.422;10.782;2024-01-15T11:42:09;2.60;99.90
39847;DHT22;25517;52.422;10.782;2024-01-15T11:44:35;2.60;99.90
39847;DHT22;25517;52.422;10.782;2024-01-15T11:47:02;2.60;99.90
39847;DHT22;25517;52.422;10.782;2024-01-15T11:49:59;2.60;99.90
39847;DHT22;25517;52.422;10.782;2024-01-15T11:52:36;2.60;99.90
39847;DHT22;25517;52.422;10.782;2024-01-15T11:57:54;2.60;99.90
39847;DHT22;25517;52.422;10.782;2024-01-15T12:00:22;2.60;99.90
39847;DHT22;25517;52.422;10.782;2024-01-15T12:02:51;2.50;99.90
39847;DHT22;25517;52.422;10.782;2024-01-15T12:05:21;2.50;99.90
39847;DHT22;25517;52.422;10.782;2024-01-15T12:07:48;2.60;99.90
39847;DHT22;25517;52.422;10.782;2024-01-15T12:10:20;2.60;99.90
39847;DHT22;25517;52.422;10.782;2024-01-15T12:12:58;2.60;99.90
39847;DHT22;25517;52.422;10.782;2024-01-15T12:15:25;2.60;99.90
39847;DHT22;25517;52.422;10.782;2024-01-15T12:17:51;2.60;99.90
39847;DHT22;25517;52.422;10.782;2024-01-15T12:20:19;2.60;99.90
39847;DHT22;25517;52.422;10.782;2024-01-15T12:22:45;2.50;99.90
39847;DHT22;25517;52.422;10.782;2024-01-15T12:25:11;2.50;99.90
39847;DHT22;25517;52.422;10.782;2024-01-15T12:27:37;2.60;99.90
39847;DHT22;25517;52.422;10.782;2024-01-15T12:30:03;2.60;99.90
39847;DHT22;25517;52.422;10.782;2024-01-15T12:32:29;2.60;99.90
39847;DHT22;25517;52.422;10.782;2024-01-15T12:34:55;2.60;99.90
39847;DHT22;25517;52.422;10.782;2024-01-15T12:37:21;2.60;99.90
39847;DHT22;25517;52.422;10.782;2024-01-15T12:39:47;2.60;99.90
39847;DHT22;25517;52.422;10.782;2024-01-15T12:42:16;2.50;99.90
39847;DHT22;25517;52.422;10.782;2024-01-15T12:44:43;2.50;99.90
39847;DHT22;25517;52.422;10.782;2024-01-15T12:47:10;2.50;99.90
39847;DHT22;25517;52.422;10.782;2024-01-15T12:49:38;2.50;99.90
39847;DHT22;25517;52.422;10.782;2024-01-15T12:52:08;2.60;99.90
39847;DHT22;25517;52.422;10.782;2024-01-15T12:54:34;2.50;99.90
39847;DHT22;25517;52.422;10.782;2024-01-15T12:57:00;2.60;99.90
39847;DHT22;25517;52.422;10.782;2024-01-15T12:59:25;2.60;99.90
39847;DHT22;25517;52.422;10.782;2024-01-15T13:01:51;2.60;99.90
39847;DHT22;25517;52.422;10.782;2024-01-15T13:04:24;2.70;99.90
39847;DHT22;25517;52.422;10.782;2024-01-15T13:06:50;2.80;99.90
39847;DHT22;25517;52.422;10.782;2024-01-15T13:09:17;2.80;99.90
39847;DHT22;25517;52.422;10.782;2024-01-15T13:11:44;2.90;99.90
39847;DHT22;25517;52.422;10.782;2024-01-15T13:14:10;3.00;99.90
39847;DHT22;25517;52.422;10.782;2024-01-15T13:16:36;3.00;99.90
39847;DHT22;25517;52.422;10.782;2024-01-15T13:19:01;3.00;99.90
39847;DHT22;25517;52.422;10.782;2024-01-15T13:21:29;3.00;99.90
39847;DHT22;25517;52.422;10.782;2024-01-15T13:23:55;2.90;99.90
39847;DHT22;25517;52.422;10.782;2024-01-15T13:26:21;2.90;99.90
39847;DHT22;25517;52.422;10.782;2024-01-15T13:28:47;2.90;99.90
39847;DHT22;25517;52.422;10.782;2024-01-15T13:31:12;2.80;99.90
39847;DHT22;25517;52.422;10.782;2024-01-15T13:33:38;2.80;99.90
39847;DHT22;25517;52.422;10.782;2024-01-15T13:36:04;2.70;99.90
39847;DHT22;25517;52.422;10.782;2024-01-15T13:38:33;2.70;99.90
39847;DHT22;25517;52.422;10.782;2024-01-15T13:41:04;2.60;99.90
39847;DHT22;25517;52.422;10.782;2024-01-15T13:43:30;2.60;99.90
39847;DHT22;25517;52.422;10.782;2024-01-15T13:45:56;2.60;99.90
39847;DHT22;25517;52.422;10.782;2024-01-15T13:48:22;2.50;99.90
39847;DHT22;25517;52.422;10.782;2024-01-15T13:50:47;2.50;99.90
39847;DHT22;25517;52.422;10.782;2024-01-15T13:53:13;2.50;99.90
39847;DHT22;25517;52.422;10.782;2024-01-15T13:55:38;2.60;99.90
39847;DHT22;25517;52.422;10.782;2024-01-15T13:58:05;2.50;99.90
39847;DHT22;25517;52.422;10.782;2024-01-15T14:00:32;2.50;99.90
39847;DHT22;25517;52.422;10.782;2024-01-15T14:02:57;2.50;99.90
39847;DHT22;25517;52.422;10.782;2024-01-15T14:05:23;2.50;99.90
39847;DHT22;25517;52.422;10.782;2024-01-15T14:07:49;2.40;99.90
39847;DHT22;25517;52.422;10.782;2024-01-15T14:10:15;2.40;99.90
39847;DHT22;25517;52.422;10.782;2024-01-15T14:12:41;2.40;99.90
39847;DHT22;25517;52.422;10.782;2024-01-15T14:15:07;2.30;99.90
39847;DHT22;25517;52.422;10.782;2024-01-15T14:17:33;2.30;99.90
39847;DHT22;25517;52.422;10.782;2024-01-15T14:19:59;2.30;99.90
39847;DHT22;25517;52.422;10.782;2024-01-15T14:22:24;2.30;99.90
39847;DHT22;25517;52.422;10.782;2024-01-15T14:24:50;2.30;99.90
39847;DHT22;25517;52.422;10.782;2024-01-15T14:27:16;2.20;99.90
39847;DHT22;25517;52.422;10.782;2024-01-15T14:29:44;2.20;99.90
39847;DHT22;25517;52.422;10.782;2024-01-15T14:32:11;2.30;99.90
39847;DHT22;25517;52.422;10.782;2024-01-15T14:34:37;2.30;99.90
39847;DHT22;25517;52.422;10.782;2024-01-15T14:37:03;2.30;99.90
39847;DHT22;25517;52.422;10.782;2024-01-15T14:39:29;2.20;99.90
39847;DHT22;25517;52.422;10.782;2024-01-15T14:41:57;2.20;99.90
39847;DHT22;25517;52.422;10.782;2024-01-15T14:44:23;2.20;99.90
39847;DHT22;25517;52.422;10.782;2024-01-15T14:46:49;2.20;99.90
39847;DHT22;25517;52.422;10.782;2024-01-15T14:49:15;2.10;99.90
39847;DHT22;25517;52.422;10.782;2024-01-15T14:51:43;2.10;99.90
39847;DHT22;25517;52.422;10.782;2024-01-15T14:54:12;2.10;99.90
39847;DHT22;25517;52.422;10.782;2024-01-15T14:56:38;2.10;99.90
39847;DHT22;25517;52.422;10.782;2024-01-15T14:59:03;2.00;99.90
39847;DHT22;25517;52.422;10.782;2024-01-15T15:01:30;2.00;99.90
39847;DHT22;25517;52.422;10.782;2024-01-15T15:03:55;1.90;99.90
39847;DHT22;25517;52.422;10.782;2024-01-15T15:06:21;1.90;99.90
39847;DHT22;25517;52.422;10.782;2024-01-15T15:08:46;1.80;99.90
39847;DHT22;25517;52.422;10.782;2024-01-15T15:11:12;1.80;99.90
39847;DHT22;25517;52.422;10.782;2024-01-15T15:13:39;1.80;99.90
39847;DHT22;25517;52.422;10.782;2024-01-15T15:16:05;1.80;99.90
39847;DHT22;25517;52.422;10.782;2024-01-15T15:18:31;1.80;99.90
39847;DHT22;25517;52.422;10.782;2024-01-15T15:20:57;1.80;99.90
39847;DHT22;25517;52.422;10.782;2024-01-15T15:23:22;1.80;99.90
39847;DHT22;25517;52.422;10.782;2024-01-15T15:25:48;1.80;99.90
39847;DHT22;25517;52.422;10.782;2024-01-15T15:28:14;1.70;99.90
39847;DHT22;25517;52.422;10.782;2024-01-15T15:30:41;1.70;99.90
39847;DHT22;25517;52.422;10.782;2024-01-15T15:33:07;1.70;99.90
39847;DHT22;25517;52.422;10.782;2024-01-15T15:35:32;1.70;99.90